Hiawatha, KS

03:20 PM CDT 2017 iraila ren 25 an (GMT -0500)
Hiawatha, KS | | Change Station

Elev 1135 ft 39.84 °N, 95.53 °W | Updated 14 seconds ago

Ekaitza
Ekaitza
69.4 °F
Feels Like 69.4 °F
N
2.0
Haizea Aldagarria Haizea from Mendebalde

Gaur
High -- | Low -- °F
--% Chance of Precip.
Yesterday
High -- | Low -- °F
Precip. -- in
Presioa 29.87 in
Ikusgaitasuna 9.0 Miliak
Clouds Few 5000 ft
Few 6000 ft
Dispertsaturik hodeiak 8500 ft
Ihintzaren maila 64 °F
Afoinua 83%
Rainfall 0.18 in
Snow Depth Not available.
7:12 AM 7:13 PM
Waxing Crescent, 29% visible
SPECI KFNB 252016Z AUTO 36005KT 9SM VCTS FEW050 FEW060 SCT085 23/21 A2987 RMK AO2 LTG DSNT ALQDS T02280211
Presioa 29.87 in
Ikusgaitasuna 9.0 Miliak
Clouds Few 5000 ft
Few 6000 ft
Dispertsaturik hodeiak 8500 ft
Ihintzaren maila 64 °F
Afoinua 83%
Rainfall 0.18 in
Snow Depth Not available.
7:12 AM 7:13 PM
Waxing Crescent, 29% visible
SPECI KFNB 252016Z AUTO 36005KT 9SM VCTS FEW050 FEW060 SCT085 23/21 A2987 RMK AO2 LTG DSNT ALQDS T02280211

Get Severe Weather Alerts

Thanks for signing up!

Be on the lookout for a verification email in your inbox.

You'll start receiving the daily forecast at 6 AM.

×

10-Day Weather Forecast

Almanac

Astronomy

Sep. 25, 2017 Rise Set
Actual Time
Civil Twilight
Nautical Twilight
Astronomical Twilight
Moon
Length Of Visible Light
Length of Day
Tomorrow will be .
, % of the Moon is Illuminated

Today's Extremes

State Highs State Lows

Community

WunderPhotos

Category 6

Welcome to Category 6. This is the collective home for Weather Underground's featured writeups by Dr. Jeff Masters (right), Bob Henson (left), Chris Burt, and other regular contributors.

Nearby

Air Quality

  Air Quality AQ Index Pollutant
Not available.

Snow Depth

Station Depth Elevation

Earthquake Activity

City Distance Mag. Time & Date
Minimum magnitude displayed is 2.5.

Coastal Water Temperatures

Lekua Tenperatura

Stations

Nearby Weather Stations

Station Location Temp Izozki haizeak Ihintzaren maila Afoinua Haizea Precip. Elev Eguneratuta Type
                   

Watches & Warnings

There are currently no watches in effect.